Britt, Canada
Current Conditions -  °F | °C
As of 11:00 AM on Thursday 23 Oct 2014 (Local Time) from CYSB Reporting Station
Few Clouds Few Clouds  
Wind Chill: 43°   Ceiling: Unl
Heat Index: 43°   Visibility: 20mi
Dew Point: 36°   Wind: 3mph
Humidity: 76%   Direction: 50°NE
Pressure: 30.21"   Gusts: NA
Location:  45.78°N, 80.53°W
Report Text: CYSB 231500Z 05003KT 20SM FEW200 06/02 A3021 RMK CI1 SLP244
Loading
Personal Weather Stations






























Interactive Weather Map
Tropical Storm Tracking
New forecast layout! Learn more

10-Day Weather Forecast

Advertisements
Track Severe Weather on mobile